KRWI/RWI METAR and TAF weather

Enter ICAO airport designator
Station Type Date Time Source
KRWI METAR 2020/02/24 07:53 UTC NOAA

KRWI 240753Z AUTO 00000KT 10SM CLR 06/02 A3011 RMK AO2 SLP197 T00560017


Station Type Date Time Source
KRWI Decoded METAR 2020/02/24 07:53 UTC NOAA

ROCKY MOUNT-WILSON AIRPORT, NC, United States (KRWI) 35-51N 077-54W 47M
Feb 24, 2020 - 02:53 AM EST / 2020.02.24 0753 UTC
Wind: Calm:0
Visibility: 10 mile(s):0
Sky conditions: clear
Temperature: 42.1 F (5.6 C)
Dew Point: 35.1 F (1.7 C)
Relative Humidity: 75%
Pressure (altimeter): 30.11 in. Hg (1019 hPa)
ob: KRWI 240753Z AUTO 00000KT 10SM CLR 06/02 A3011 RMK AO2 SLP197 T00560017
cycle: 8

Station Type Date Time Source
KRWI TAF 2020/02/24 06:27 UTC NOAA

TAF KRWI 240524Z 2406/2506 18003KT P6SM BKN120
FM242000 17003KT P6SM -RA OVC030
FM242200 16003KT P6SM -RA OVC008
FM250000 15003KT 6SM -RA OVC003

Example: see airport list